createdAt,value
2023-04-16T00:01:47.766Z,8.36
2023-04-16T00:04:14.634Z,8.37
2023-04-16T00:09:14.942Z,8.46
2023-04-16T00:14:14.723Z,8.40
2023-04-16T00:16:41.333Z,8.35
2023-04-16T00:19:08.335Z,8.47
2023-04-16T00:21:35.144Z,8.52
2023-04-16T00:24:01.923Z,8.51
2023-04-16T00:26:28.621Z,8.38
2023-04-16T00:28:55.264Z,8.40
2023-04-16T00:34:14.785Z,8.49
2023-04-16T00:36:41.484Z,8.51
2023-04-16T00:39:08.519Z,8.52
2023-04-16T00:41:35.520Z,8.45
2023-04-16T00:44:02.311Z,8.43
2023-04-16T00:46:29.080Z,8.40
2023-04-16T00:48:56.579Z,8.36
2023-04-16T00:51:23.746Z,8.34
2023-04-16T00:53:50.965Z,8.37
2023-04-16T00:56:18.284Z,8.39
2023-04-16T01:23:48.095Z,8.32
2023-04-16T01:28:55.155Z,8.31
2023-04-16T01:31:21.779Z,8.27
2023-04-16T01:33:48.469Z,8.36
2023-04-16T01:36:15.105Z,8.36
2023-04-16T01:38:41.779Z,8.29
2023-04-16T01:41:08.497Z,8.32
2023-04-16T01:43:35.167Z,8.39
2023-04-16T01:46:18.255Z,8.35
2023-04-16T01:48:45.116Z,8.30
2023-04-16T01:51:11.867Z,8.42
2023-04-16T01:59:17.889Z,8.27
2023-04-16T02:01:44.616Z,8.28
2023-04-16T02:04:12.610Z,8.33
2023-04-16T02:06:39.393Z,8.31
2023-04-16T02:09:06.016Z,8.27
2023-04-16T02:11:32.675Z,8.24
2023-04-16T02:13:59.270Z,8.26
2023-04-16T02:16:26.554Z,8.38
2023-04-16T02:18:53.337Z,8.33
2023-04-16T02:21:20.454Z,8.25
2023-04-16T02:23:51.879Z,8.26
2023-04-16T02:26:18.818Z,8.32
2023-04-16T02:28:45.646Z,8.26
2023-04-16T02:31:12.389Z,8.24
2023-04-16T02:33:39.050Z,8.23
2023-04-16T02:36:06.240Z,8.31
2023-04-16T02:38:32.885Z,8.18
2023-04-16T02:40:59.625Z,8.27
2023-04-16T02:43:26.281Z,8.24
2023-04-16T02:45:53.063Z,8.30
2023-04-16T02:48:19.665Z,8.23
2023-04-16T02:50:46.237Z,8.17
2023-04-16T02:53:12.917Z,8.36
2023-04-16T02:55:39.600Z,8.30
2023-04-16T02:58:06.252Z,8.32
2023-04-16T03:00:32.897Z,8.29
2023-04-16T03:02:59.564Z,8.29
2023-04-16T03:05:26.317Z,8.21
2023-04-16T03:07:56.888Z,8.28
2023-04-16T03:10:24.344Z,8.31
2023-04-16T03:12:51.117Z,8.30
2023-04-16T03:15:17.938Z,8.33
2023-04-16T03:17:44.689Z,8.19
2023-04-16T03:20:11.703Z,8.27
2023-04-16T03:22:41.339Z,8.28
2023-04-16T03:25:08.380Z,8.23
2023-04-16T03:27:35.325Z,8.37
2023-04-16T03:30:02.479Z,8.23
2023-04-16T03:32:29.175Z,8.21
2023-04-16T03:34:56.180Z,8.24
2023-04-16T03:37:23.294Z,8.23
2023-04-16T03:39:49.893Z,8.11
2023-04-16T03:42:16.544Z,8.20
2023-04-16T03:44:43.173Z,8.20
2023-04-16T03:47:09.780Z,8.27
2023-04-16T03:49:36.385Z,8.29
2023-04-16T03:52:03.180Z,8.26
2023-04-16T03:54:29.818Z,8.20
2023-04-16T03:56:57.271Z,8.25
2023-04-16T03:59:23.958Z,8.28
2023-04-16T04:01:51.067Z,8.25
2023-04-16T04:04:17.852Z,8.24
2023-04-16T04:06:46.447Z,8.30
2023-04-16T04:09:13.945Z,8.23
2023-04-16T04:11:40.572Z,8.17
2023-04-16T04:14:07.260Z,8.23
2023-04-16T04:16:34.463Z,8.16
2023-04-16T04:19:01.596Z,8.15
2023-04-16T04:21:29.428Z,8.19
2023-04-16T04:23:56.280Z,8.14
2023-04-16T04:26:23.064Z,8.19
2023-04-16T04:28:49.933Z,8.15
2023-04-16T04:31:16.786Z,8.13
2023-04-16T04:33:43.429Z,8.09
2023-04-16T04:36:10.100Z,8.13
2023-04-16T04:38:36.747Z,8.21
2023-04-16T04:41:03.510Z,8.17
2023-04-16T04:43:30.100Z,8.19
2023-04-16T04:45:56.770Z,8.24
2023-04-16T04:48:26.861Z,8.19
2023-04-16T04:50:54.094Z,8.25
2023-04-16T04:53:20.858Z,8.23
2023-04-16T04:55:50.903Z,8.24
2023-04-16T04:58:19.658Z,8.23
2023-04-16T05:00:46.408Z,8.24
2023-04-16T05:03:13.200Z,8.19
2023-04-16T05:05:40.827Z,8.15
2023-04-16T05:08:07.749Z,8.23
2023-04-16T05:10:34.424Z,8.12
2023-04-16T05:13:01.327Z,8.15
2023-04-16T05:15:28.150Z,8.04
2023-04-16T05:17:56.369Z,8.12
2023-04-16T05:20:24.511Z,8.13
2023-04-16T05:22:51.641Z,8.03
2023-04-16T05:25:18.645Z,8.18
2023-04-16T05:27:45.342Z,8.10
2023-04-16T05:30:12.498Z,8.15
2023-04-16T05:32:41.264Z,8.10
2023-04-16T05:35:08.364Z,8.04
2023-04-16T05:37:35.006Z,8.08
2023-04-16T05:40:01.679Z,8.06
2023-04-16T05:42:28.359Z,8.14
2023-04-16T05:44:55.030Z,8.12
2023-04-16T05:52:35.942Z,8.22
2023-04-16T05:55:02.630Z,8.18
2023-04-16T05:57:29.825Z,8.21
2023-04-16T05:59:56.556Z,8.16
2023-04-16T06:02:23.523Z,8.17
2023-04-16T06:04:50.213Z,8.22
2023-04-16T06:07:16.833Z,8.32
2023-04-16T06:09:43.433Z,8.24
2023-04-16T06:12:10.186Z,8.28
2023-04-16T06:14:36.806Z,8.32
2023-04-16T06:17:03.415Z,8.29
2023-04-16T06:19:30.016Z,8.31
2023-04-16T06:21:57.229Z,8.27
2023-04-16T06:24:23.856Z,8.28
2023-04-16T06:26:50.621Z,8.30
2023-04-16T06:29:17.247Z,8.25
2023-04-16T06:31:43.951Z,8.40
2023-04-16T06:36:49.164Z,8.30
2023-04-16T06:39:15.841Z,8.27
2023-04-16T06:41:42.815Z,8.38
2023-04-16T06:44:09.471Z,8.34
2023-04-16T06:49:13.665Z,8.27
2023-04-16T06:51:40.315Z,8.35
2023-04-16T06:54:06.987Z,8.30
2023-04-16T06:56:34.100Z,8.35
2023-04-16T06:59:01.191Z,8.43
2023-04-16T07:01:28.663Z,8.32
2023-04-16T07:03:55.667Z,8.34
2023-04-16T07:06:22.462Z,8.33
2023-04-16T07:08:49.199Z,8.38
2023-04-16T07:13:54.140Z,8.38
2023-04-16T07:16:21.161Z,8.42
2023-04-16T07:21:19.222Z,8.36
2023-04-16T07:23:45.912Z,8.28
2023-04-16T07:26:12.609Z,8.30
2023-04-16T07:28:39.265Z,8.39
2023-04-16T07:31:06.016Z,8.40
2023-04-16T07:33:32.617Z,8.35
2023-04-16T07:35:59.336Z,8.45
2023-04-16T07:38:25.960Z,8.43
2023-04-16T07:40:52.699Z,8.49
2023-04-16T07:43:19.292Z,8.48
2023-04-16T07:45:46.089Z,8.43
2023-04-16T07:48:12.740Z,8.49
2023-04-16T07:50:39.474Z,8.43
2023-04-16T07:53:07.897Z,8.48
2023-04-16T07:55:34.579Z,8.50
2023-04-16T07:58:01.449Z,8.52
2023-04-16T08:00:28.146Z,8.51
2023-04-16T08:02:55.291Z,8.50
2023-04-16T08:05:22.106Z,8.52
2023-04-16T08:07:48.795Z,8.45
2023-04-16T08:10:15.852Z,8.42
2023-04-16T08:12:42.538Z,8.49
2023-04-16T08:15:09.529Z,8.45
2023-04-16T08:17:37.818Z,8.45
2023-04-16T08:20:05.352Z,8.64
2023-04-16T08:22:33.379Z,8.55
2023-04-16T08:25:00.218Z,10.00
2023-04-16T08:27:26.914Z,10.15
2023-04-16T08:29:53.570Z,10.12
2023-04-16T08:32:20.195Z,9.86
2023-04-16T08:34:46.936Z,9.52
2023-04-16T08:37:13.601Z,9.30
2023-04-16T08:39:40.255Z,9.17
2023-04-16T08:42:13.361Z,9.05
2023-04-16T08:44:49.265Z,8.78
2023-04-16T08:47:16.598Z,8.86
2023-04-16T08:49:46.441Z,8.79
2023-04-16T08:52:17.074Z,8.77
2023-04-16T08:54:56.502Z,8.86
2023-04-16T08:57:26.973Z,8.90
2023-04-16T08:59:55.452Z,8.76
2023-04-16T09:02:22.785Z,8.74
2023-04-16T09:04:51.559Z,8.79
2023-04-16T09:07:21.026Z,8.68
2023-04-16T09:09:50.553Z,8.66
2023-04-16T09:12:17.858Z,8.76
2023-04-16T09:14:49.612Z,8.74
2023-04-16T09:17:17.077Z,8.81
2023-04-16T09:19:44.315Z,8.83
2023-04-16T09:22:11.748Z,8.70
2023-04-16T09:24:42.214Z,8.74
2023-04-16T09:27:09.133Z,8.73
2023-04-16T09:29:40.736Z,8.78
2023-04-16T09:32:12.066Z,8.76
2023-04-16T09:35:02.447Z,8.87
2023-04-16T09:40:04.212Z,8.89
2023-04-16T09:42:32.717Z,8.90
2023-04-16T09:45:01.322Z,8.80
2023-04-16T10:05:47.362Z,8.75
2023-04-16T10:08:20.359Z,8.74
2023-04-16T10:10:54.484Z,8.73
2023-04-16T10:13:31.391Z,8.72
2023-04-16T10:16:04.769Z,8.79
2023-04-16T10:18:39.059Z,8.70
2023-04-16T10:21:13.026Z,8.72
2023-04-16T10:34:33.852Z,8.73
2023-04-16T10:37:06.583Z,8.71
2023-04-16T10:39:39.417Z,8.71
2023-04-16T10:42:13.202Z,8.76
2023-04-16T10:44:46.469Z,8.82
2023-04-16T10:47:19.238Z,8.77
2023-04-16T10:49:52.173Z,8.82
2023-04-16T10:54:59.653Z,8.82
2023-04-16T10:57:29.468Z,8.87
2023-04-16T10:59:56.452Z,8.85
2023-04-16T11:02:29.350Z,8.94
2023-04-16T11:04:58.015Z,8.88
2023-04-16T11:07:35.180Z,8.88
2023-04-16T11:10:06.269Z,8.95
2023-04-16T11:12:41.188Z,8.84
2023-04-16T11:15:10.540Z,8.90
2023-04-16T11:17:41.270Z,8.82
2023-04-16T11:22:42.278Z,9.01
2023-04-16T11:25:09.438Z,8.98
2023-04-16T11:27:36.080Z,8.83
2023-04-16T11:30:05.648Z,8.87
2023-04-16T11:32:36.422Z,8.75
2023-04-16T11:35:06.005Z,8.76
2023-04-16T11:37:34.417Z,8.89
2023-04-16T11:40:01.800Z,8.87
2023-04-16T11:42:28.705Z,8.97
2023-04-16T11:44:56.746Z,8.99
2023-04-16T11:47:24.548Z,8.95
2023-04-16T11:49:51.757Z,8.89
2023-04-16T11:52:33.640Z,8.90
2023-04-16T11:55:00.377Z,8.99
2023-04-16T11:57:32.118Z,9.03
2023-04-16T12:00:01.524Z,9.14
2023-04-16T12:02:37.663Z,9.14
2023-04-16T12:05:05.811Z,9.19
2023-04-16T12:07:32.543Z,9.16
2023-04-16T12:12:39.558Z,9.24
2023-04-16T12:15:06.973Z,9.25
2023-04-16T12:20:15.524Z,9.16
2023-04-16T12:22:47.465Z,9.11
2023-04-16T12:25:16.737Z,9.09
2023-04-16T12:30:25.261Z,9.11
2023-04-16T12:33:13.029Z,9.16
2023-04-16T12:35:42.093Z,9.18
2023-04-16T12:38:08.760Z,9.17
2023-04-16T12:40:36.294Z,9.22
2023-04-16T12:43:03.062Z,9.19
2023-04-16T12:48:01.143Z,9.11
2023-04-16T12:50:29.016Z,9.20
2023-04-16T12:52:56.767Z,9.16
2023-04-16T12:57:54.903Z,9.24
2023-04-16T13:02:56.321Z,9.11
2023-04-16T13:05:23.027Z,9.04
2023-04-16T13:07:49.708Z,9.14
2023-04-16T13:10:16.935Z,9.11
2023-04-16T13:12:43.634Z,9.22
2023-04-16T13:15:10.817Z,9.22
2023-04-16T13:17:37.624Z,9.23
2023-04-16T13:20:04.631Z,9.05
2023-04-16T13:22:31.342Z,9.14
2023-04-16T13:24:58.657Z,9.16
2023-04-16T13:27:25.418Z,9.23
2023-04-16T13:29:52.149Z,9.22
2023-04-16T13:39:38.774Z,9.10
2023-04-16T13:42:11.511Z,9.12
2023-04-16T13:44:44.243Z,9.07
2023-04-16T13:49:48.535Z,9.26
2023-04-16T13:52:15.197Z,9.24
2023-04-16T13:54:41.847Z,9.23
2023-04-16T13:57:08.587Z,9.23
2023-04-16T13:59:35.250Z,9.23
2023-04-16T14:02:02.500Z,9.28
2023-04-16T14:07:00.653Z,9.22
2023-04-16T14:12:05.568Z,9.35
2023-04-16T14:14:32.237Z,9.34
2023-04-16T14:16:59.752Z,9.38
2023-04-16T14:19:26.447Z,9.34
2023-04-16T14:21:53.098Z,10.56
2023-04-16T14:24:19.717Z,11.02
2023-04-16T14:29:23.786Z,11.04
2023-04-16T14:31:51.202Z,10.58
2023-04-16T14:34:17.882Z,10.11
2023-04-16T14:36:44.640Z,10.09
2023-04-16T14:39:12.045Z,9.85
2023-04-16T14:44:16.976Z,9.64
2023-04-16T14:46:44.125Z,9.65
2023-04-16T14:51:42.772Z,9.54
2023-04-16T14:54:09.951Z,9.46
2023-04-16T14:56:36.624Z,9.50
2023-04-16T14:59:03.463Z,9.47
2023-04-16T15:04:09.222Z,9.42
2023-04-16T15:06:36.654Z,9.36
2023-04-16T15:09:04.224Z,9.42
2023-04-16T15:11:30.965Z,9.39
2023-04-16T15:13:57.615Z,9.40
2023-04-16T15:16:24.326Z,9.29
2023-04-16T15:18:51.218Z,9.44
2023-04-16T15:21:17.886Z,9.32
2023-04-16T15:23:44.590Z,9.41
2023-04-16T15:26:11.481Z,9.37
2023-04-16T15:28:38.192Z,9.35
2023-04-16T15:31:05.013Z,9.35
2023-04-16T15:33:31.774Z,9.44
2023-04-16T15:35:59.218Z,9.35
2023-04-16T15:38:25.882Z,9.38
2023-04-16T15:40:52.502Z,9.28
2023-04-16T15:43:19.176Z,9.27
2023-04-16T15:45:45.977Z,9.27
2023-04-16T15:48:12.647Z,9.27
2023-04-16T15:50:39.636Z,9.27
2023-04-16T15:53:06.327Z,9.34
2023-04-16T15:58:04.240Z,9.26
2023-04-16T16:00:30.926Z,9.27
2023-04-16T16:02:57.673Z,9.30
2023-04-16T16:07:55.769Z,9.27
2023-04-16T16:10:22.704Z,9.29
2023-04-16T16:12:49.501Z,9.28
2023-04-16T16:15:16.457Z,9.32
2023-04-16T16:17:43.107Z,9.23
2023-04-16T16:20:10.727Z,9.32
2023-04-16T16:22:38.426Z,9.28
2023-04-16T16:25:05.956Z,9.31
2023-04-16T16:27:32.610Z,9.31
2023-04-16T16:30:01.058Z,9.24
2023-04-16T16:32:27.797Z,9.31
2023-04-16T16:34:54.623Z,9.33
2023-04-16T16:37:21.278Z,9.29
2023-04-16T16:39:47.918Z,9.24
2023-04-16T16:42:18.770Z,9.25
2023-04-16T16:44:47.661Z,9.30
2023-04-16T16:47:14.272Z,9.27
2023-04-16T16:52:12.257Z,9.31
2023-04-16T16:54:38.911Z,9.29
2023-04-16T16:57:05.718Z,9.31
2023-04-16T16:59:32.391Z,9.23
2023-04-16T17:01:59.105Z,9.25
2023-04-16T17:06:57.059Z,9.32
2023-04-16T17:09:23.796Z,9.27
2023-04-16T17:11:50.560Z,9.30
2023-04-16T17:16:50.056Z,9.24
2023-04-16T17:19:18.029Z,9.31
2023-04-16T17:21:44.634Z,9.29
2023-04-16T17:24:11.447Z,9.38
2023-04-16T17:26:41.021Z,9.38
2023-04-16T17:29:07.702Z,9.23
2023-04-16T17:34:06.497Z,9.50
2023-04-16T17:36:33.183Z,9.36
2023-04-16T17:38:59.816Z,9.42
2023-04-16T17:41:26.432Z,9.25
2023-04-16T17:43:53.083Z,9.23
2023-04-16T17:46:19.922Z,9.23
2023-04-16T17:48:48.957Z,9.26
2023-04-16T17:51:16.707Z,9.24
2023-04-16T17:53:43.734Z,9.27
2023-04-16T17:56:11.504Z,9.33
2023-04-16T17:58:38.120Z,9.24
2023-04-16T18:01:05.710Z,9.31
2023-04-16T18:03:33.072Z,9.23
2023-04-16T18:05:59.969Z,9.23
2023-04-16T18:08:27.579Z,9.28
2023-04-16T18:10:55.568Z,9.26
2023-04-16T18:13:22.614Z,9.28
2023-04-16T18:15:49.405Z,9.24
2023-04-16T18:18:16.405Z,9.28
2023-04-16T18:20:43.094Z,9.21
2023-04-16T18:23:09.952Z,9.47
2023-04-16T18:25:36.696Z,9.41
2023-04-16T18:28:05.309Z,9.37
2023-04-16T18:30:32.308Z,9.46
2023-04-16T18:35:28.569Z,9.71
2023-04-16T18:37:55.263Z,9.53
2023-04-16T18:40:21.910Z,9.48
2023-04-16T18:42:48.566Z,9.36
2023-04-16T18:45:20.962Z,9.31
2023-04-16T18:47:48.334Z,9.34
2023-04-16T18:50:15.053Z,9.26
2023-04-16T18:52:41.777Z,9.24
2023-04-16T18:55:08.845Z,9.26
2023-04-16T18:57:35.433Z,9.31
2023-04-16T19:00:05.723Z,9.27
2023-04-16T19:02:32.647Z,9.23
2023-04-16T19:04:59.271Z,9.26
2023-04-16T19:07:25.907Z,9.24
2023-04-16T19:09:52.492Z,9.15
2023-04-16T19:12:19.084Z,9.19
2023-04-16T19:14:45.943Z,9.14
2023-04-16T19:17:12.628Z,9.20
2023-04-16T19:19:39.283Z,9.22
2023-04-16T19:22:05.937Z,9.10
2023-04-16T19:24:34.137Z,9.19
2023-04-16T19:27:02.592Z,9.21
2023-04-16T19:29:33.226Z,9.17
2023-04-16T19:31:59.980Z,9.24
2023-04-16T19:36:58.127Z,9.10
2023-04-16T19:39:28.295Z,9.13
2023-04-16T19:41:54.944Z,9.18
2023-04-16T19:44:23.375Z,9.17
2023-04-16T19:46:50.046Z,9.18
2023-04-16T19:51:47.970Z,9.10
2023-04-16T19:54:14.719Z,9.08
2023-04-16T19:56:41.750Z,9.12
2023-04-16T19:59:08.475Z,9.12
2023-04-16T20:01:35.304Z,9.10
2023-04-16T20:09:07.454Z,9.11
2023-04-16T20:11:34.845Z,9.09
2023-04-16T20:14:01.818Z,9.05
2023-04-16T20:16:28.777Z,9.01
2023-04-16T20:18:55.596Z,9.05
2023-04-16T20:21:22.272Z,9.08
2023-04-16T20:26:20.623Z,9.18
2023-04-16T20:28:47.235Z,9.28
2023-04-16T20:31:13.878Z,9.24
2023-04-16T20:33:40.849Z,9.20
2023-04-16T20:38:45.242Z,9.27
2023-04-16T20:41:14.721Z,9.17
2023-04-16T20:43:42.431Z,9.19
2023-04-16T20:46:09.240Z,9.16
2023-04-16T20:48:36.027Z,9.04
2023-04-16T20:51:04.796Z,9.04
2023-04-16T20:53:32.817Z,9.08
2023-04-16T20:56:03.019Z,9.09
2023-04-16T20:58:30.254Z,9.10
2023-04-16T21:00:57.726Z,9.16
2023-04-16T21:03:24.717Z,9.03
2023-04-16T21:05:55.969Z,9.04
2023-04-16T21:08:24.077Z,9.07
2023-04-16T21:10:51.422Z,9.15
2023-04-16T21:13:18.831Z,9.10
2023-04-16T21:15:45.926Z,9.12
2023-04-16T21:18:12.998Z,9.07
2023-04-16T21:20:40.097Z,9.07
2023-04-16T21:23:06.820Z,9.04
2023-04-16T21:25:33.797Z,9.08
2023-04-16T21:28:00.461Z,8.99
2023-04-16T21:30:27.322Z,9.04
2023-04-16T21:32:54.098Z,9.03
2023-04-16T21:35:20.760Z,9.00
2023-04-16T21:37:47.423Z,9.00
2023-04-16T21:40:14.223Z,8.98
2023-04-16T21:45:20.689Z,8.95
2023-04-16T21:47:47.340Z,8.94
2023-04-16T21:50:14.087Z,8.97
2023-04-16T21:52:46.435Z,9.00
2023-04-16T21:55:14.628Z,8.99
2023-04-16T21:57:41.288Z,8.93
2023-04-16T22:02:44.434Z,9.01
2023-04-16T22:05:11.833Z,8.96
2023-04-16T22:07:38.606Z,8.95
2023-04-16T22:10:06.145Z,8.93
2023-04-16T22:12:32.885Z,9.08
2023-04-16T22:15:02.917Z,9.00
2023-04-16T22:17:30.431Z,8.96
2023-04-16T22:20:00.628Z,8.95
2023-04-16T22:22:27.330Z,8.93
2023-04-16T22:27:25.394Z,8.86
2023-04-16T22:29:52.146Z,8.84
2023-04-16T22:32:18.955Z,8.92
2023-04-16T22:34:46.005Z,8.84
2023-04-16T22:37:12.615Z,8.88
2023-04-16T22:39:39.293Z,8.88
2023-04-16T22:42:06.178Z,8.88
2023-04-16T22:44:32.821Z,8.94
2023-04-16T22:46:59.411Z,8.90
2023-04-16T22:49:26.759Z,8.85
2023-04-16T22:51:53.387Z,8.94
2023-04-16T22:54:20.030Z,8.89
2023-04-16T22:56:47.067Z,8.88
2023-04-16T22:59:13.852Z,8.89
2023-04-16T23:01:42.311Z,8.84
2023-04-16T23:04:09.145Z,8.85
2023-04-16T23:06:35.802Z,8.85
2023-04-16T23:09:02.684Z,8.85
2023-04-16T23:11:29.385Z,8.81
2023-04-16T23:13:55.985Z,8.81
2023-04-16T23:16:22.736Z,8.82
2023-04-16T23:18:49.528Z,8.80
2023-04-16T23:21:16.167Z,8.90
2023-04-16T23:23:42.784Z,8.92
2023-04-16T23:26:09.764Z,8.87
2023-04-16T23:28:36.372Z,8.82
2023-04-16T23:31:04.214Z,8.89
2023-04-16T23:33:32.598Z,8.88
2023-04-16T23:35:59.223Z,8.76
2023-04-16T23:41:03.573Z,8.82
2023-04-16T23:43:30.235Z,8.80
2023-04-16T23:45:56.980Z,8.73
2023-04-16T23:48:23.722Z,8.74
2023-04-16T23:50:50.341Z,8.74
2023-04-16T23:53:17.505Z,8.79
2023-04-16T23:55:44.152Z,8.76
2023-04-16T23:58:10.888Z,8.90
